Time;durP1;ratioP1;P1;durP2;ratioP2;P2;SDS_P1;SDS_P2;PMS_P1;PMS_P2;Temp;Humidity;BMP_temperature;BMP_pressure;BME280_temperature;BME280_humidity;BME280_pressure;Samples;Min_cycle;Max_cycle;Signal;HPM_P1;HPM_P2
2023/07/09 00:00:41;;;;;;;8.02;4.70;;;;;;;24.42;55.72;100800.28;4145375;28;20048;-61
2023/07/09 00:02:44;;;;;;;10.13;5.15;;;;;;;24.35;55.99;100792.50;4143380;28;20038;-60
2023/07/09 00:04:47;;;;;;;9.88;5.40;;;;;;;24.26;56.08;100800.84;4142137;28;20083;-60
2023/07/09 00:06:51;;;;;;;10.43;4.13;;;;;;;24.30;56.15;100796.25;4141415;28;20133;-60
2023/07/09 00:08:54;;;;;;;11.48;5.25;;;;;;;24.35;56.11;100794.31;4142296;28;20124;-60
2023/07/09 00:10:58;;;;;;;6.55;4.20;;;;;;;24.38;56.00;100802.16;4143455;28;20034;-60
2023/07/09 00:13:01;;;;;;;9.07;4.25;;;;;;;24.43;55.72;100804.66;4139837;28;20049;-60
2023/07/09 00:15:05;;;;;;;8.30;4.90;;;;;;;24.39;56.50;100804.75;4126909;28;20041;-60
2023/07/09 00:17:11;;;;;;;9.38;4.78;;;;;;;24.32;56.72;100807.72;4159178;28;20045;-60
2023/07/09 00:19:17;;;;;;;12.82;5.25;;;;;;;24.20;56.87;100811.72;4144254;28;20041;-60
2023/07/09 00:21:22;;;;;;;7.85;4.60;;;;;;;24.10;56.90;100805.00;4141657;28;20044;-60
2023/07/09 00:23:27;;;;;;;6.50;4.10;;;;;;;24.14;56.81;100811.94;4139343;28;20074;-60
2023/07/09 00:25:35;;;;;;;9.90;4.75;;;;;;;24.22;56.92;100820.47;4139337;28;20065;-60
2023/07/09 00:27:39;;;;;;;9.57;4.97;;;;;;;24.23;57.01;100808.94;4142526;28;20050;-60
2023/07/09 00:29:43;;;;;;;11.40;5.50;;;;;;;24.22;57.21;100820.47;4144249;28;20045;-60
2023/07/09 00:31:45;;;;;;;8.75;5.55;;;;;;;24.17;57.54;100819.78;4133357;28;20035;-60
2023/07/09 00:33:50;;;;;;;7.88;4.88;;;;;;;24.14;57.61;100814.59;4142668;28;20133;-60
2023/07/09 00:35:52;;;;;;;7.55;4.43;;;;;;;24.07;57.36;100818.41;4144101;28;20100;-61
2023/07/09 00:38:00;;;;;;;8.82;5.15;;;;;;;23.99;57.48;100824.84;4143190;28;20037;-61
2023/07/09 00:40:04;;;;;;;8.85;5.13;;;;;;;23.92;57.83;100823.34;4156894;28;20124;-60
2023/07/09 00:42:14;;;;;;;8.07;5.00;;;;;;;23.92;58.16;100822.44;4129375;28;20042;-62
2023/07/09 00:44:31;;;;;;;9.18;5.00;;;;;;;23.97;57.94;100831.13;4159092;28;20508;-60
2023/07/09 00:47:12;;;;;;;10.00;4.88;;;;;;;23.93;58.17;100833.00;4139894;28;20566;-61
2023/07/09 00:49:17;;;;;;;9.63;5.15;;;;;;;24.00;58.06;100828.38;4159534;28;20042;-60
2023/07/09 00:51:22;;;;;;;9.00;4.78;;;;;;;23.97;58.11;100823.16;4158298;28;20148;-61
2023/07/09 00:53:31;;;;;;;9.90;5.40;;;;;;;23.96;58.52;100824.97;4154834;28;20080;-60
2023/07/09 00:55:39;;;;;;;10.35;4.88;;;;;;;23.87;58.89;100826.16;4141796;28;20555;-60
2023/07/09 00:57:56;;;;;;;10.63;5.80;;;;;;;23.93;58.68;100824.19;4140555;28;20042;-60
2023/07/09 01:00:07;;;;;;;11.55;5.30;;;;;;;23.95;58.80;100825.88;4143159;28;20052;-60
2023/07/09 01:02:10;;;;;;;9.63;4.55;;;;;;;23.87;59.02;100826.16;4142536;28;20069;-60
2023/07/09 01:04:16;;;;;;;9.88;5.13;;;;;;;23.83;58.92;100834.22;4141993;28;20431;-60
2023/07/09 01:06:32;;;;;;;8.70;4.90;;;;;;;23.82;58.88;100833.38;4140330;28;20112;-60
2023/07/09 01:08:38;;;;;;;14.75;5.38;;;;;;;23.74;59.15;100832.75;4140575;28;20043;-60
2023/07/09 01:10:41;;;;;;;8.73;5.57;;;;;;;23.68;59.21;100833.88;4143019;28;20246;-60
2023/07/09 01:12:48;;;;;;;8.82;4.30;;;;;;;23.67;59.35;100841.84;4143141;28;20045;-61
2023/07/09 01:14:58;;;;;;;12.07;5.30;;;;;;;23.67;59.25;100837.44;4141840;28;20045;-60
2023/07/09 01:17:04;;;;;;;11.70;5.55;;;;;;;23.73;59.28;100840.78;4143016;28;20531;-61
2023/07/09 01:19:08;;;;;;;12.95;5.32;;;;;;;23.77;59.35;100838.00;4144055;28;20041;-60
2023/07/09 01:21:15;;;;;;;9.50;5.95;;;;;;;23.83;58.87;100842.19;4156113;28;20068;-60
2023/07/09 01:23:18;;;;;;;9.23;5.95;;;;;;;23.82;59.10;100837.81;4140371;22;20449;-63
2023/07/09 01:25:22;;;;;;;9.70;5.55;;;;;;;23.74;59.24;100830.09;4095630;28;20145;-63
2023/07/09 01:27:28;;;;;;;9.00;4.60;;;;;;;23.73;59.36;100831.06;4094821;29;20071;-63
2023/07/09 01:29:34;;;;;;;14.18;5.32;;;;;;;23.71;59.19;100835.53;4095105;29;20039;-64
2023/07/09 01:31:37;;;;;;;10.98;4.78;;;;;;;23.71;59.24;100832.88;4108886;28;20347;-63
2023/07/09 01:33:40;;;;;;;9.02;4.93;;;;;;;23.74;59.21;100830.09;4110385;28;20051;-63
2023/07/09 01:35:43;;;;;;;9.10;4.73;;;;;;;23.66;59.33;100833.03;4110720;28;20045;-64
2023/07/09 01:37:49;;;;;;;9.47;5.33;;;;;;;23.70;59.27;100831.16;4110916;28;20330;-63
2023/07/09 01:39:52;;;;;;;11.45;5.38;;;;;;;23.71;59.33;100835.53;4108520;28;20290;-63
2023/07/09 01:41:56;;;;;;;9.80;5.50;;;;;;;23.62;59.64;100844.66;4110701;28;20042;-64
2023/07/09 01:43:59;;;;;;;14.07;6.35;;;;;;;23.62;59.76;100836.72;4095298;28;20465;-64
2023/07/09 01:46:02;;;;;;;11.52;5.35;;;;;;;23.58;60.20;100839.53;4110624;28;20406;-63
2023/07/09 01:48:06;;;;;;;11.25;5.22;;;;;;;23.48;60.43;100834.53;4114636;28;20046;-63
2023/07/09 01:50:09;;;;;;;9.95;5.20;;;;;;;23.42;60.55;100833.88;4095015;29;20560;-63
2023/07/09 01:52:16;;;;;;;12.82;5.90;;;;;;;23.43;60.67;100838.25;4093468;29;20094;-64
2023/07/09 01:54:20;;;;;;;9.35;5.18;;;;;;;23.49;60.76;100836.25;4091792;29;20036;-63
2023/07/09 01:56:24;;;;;;;9.35;5.07;;;;;;;23.55;60.38;100827.22;4107116;28;20039;-63
2023/07/09 01:58:30;;;;;;;10.60;5.25;;;;;;;23.55;60.21;100835.19;4110683;28;20066;-63
2023/07/09 02:00:34;;;;;;;11.00;5.38;;;;;;;23.56;60.23;100844.03;4092137;28;20050;-63
2023/07/09 02:02:38;;;;;;;13.63;6.78;;;;;;;23.55;60.55;100844.94;4099111;28;20040;-63
2023/07/09 02:04:42;;;;;;;17.00;6.43;;;;;;;23.49;61.12;100841.56;4096928;29;20046;-64
2023/07/09 02:06:45;;;;;;;16.20;5.60;;;;;;;23.45;61.37;100845.25;4112534;28;20051;-63
2023/07/09 02:08:48;;;;;;;9.32;5.28;;;;;;;23.45;61.10;100839.94;4094232;28;20039;-64
2023/07/09 02:10:52;;;;;;;11.02;5.75;;;;;;;23.46;61.30;100840.81;4095856;28;20046;-63
2023/07/09 02:12:55;;;;;;;12.55;4.78;;;;;;;23.41;61.26;100842.72;4096296;28;20035;-64
2023/07/09 02:14:58;;;;;;;14.20;5.32;;;;;;;23.44;61.37;100848.81;4113150;28;20035;-64
2023/07/09 02:17:00;;;;;;;11.20;4.97;;;;;;;23.46;61.35;100840.81;4112865;28;21349;-64
2023/07/09 02:19:03;;;;;;;13.25;5.43;;;;;;;23.42;61.73;100841.81;4112797;28;20045;-64
2023/07/09 02:21:06;;;;;;;13.55;5.85;;;;;;;23.29;62.03;100838.69;4098429;28;20067;-63
2023/07/09 02:23:09;;;;;;;10.27;5.75;;;;;;;23.23;62.06;100842.44;4098328;28;20094;-63
2023/07/09 02:25:14;;;;;;;9.23;5.15;;;;;;;23.23;61.96;100837.16;4097999;29;20082;-63
2023/07/09 02:27:17;;;;;;;15.60;5.85;;;;;;;23.30;62.05;100835.13;4097202;28;20043;-64
2023/07/09 02:29:20;;;;;;;11.60;5.97;;;;;;;23.29;62.08;100828.97;4112828;28;20038;-64
2023/07/09 02:31:23;;;;;;;13.75;6.13;;;;;;;23.29;62.09;100833.41;4096848;29;20466;-64
2023/07/09 02:33:26;;;;;;;15.98;5.68;;;;;;;23.21;62.52;100830.16;4097212;28;20046;-64
2023/07/09 02:35:28;;;;;;;11.65;6.30;;;;;;;23.16;62.41;100832.97;4096626;29;20501;-64
2023/07/09 02:37:31;;;;;;;14.02;6.22;;;;;;;23.13;62.83;100838.31;4112669;28;20058;-63
2023/07/09 02:39:33;;;;;;;13.43;6.07;;;;;;;23.11;62.70;100829.56;4113034;28;20049;-64
2023/07/09 02:41:37;;;;;;;13.15;5.35;;;;;;;23.00;63.15;100837.84;4112884;28;20047;-64
2023/07/09 02:43:41;;;;;;;13.40;6.70;;;;;;;22.97;62.86;100838.81;4110373;28;20046;-64
2023/07/09 02:45:44;;;;;;;;;;;;;;;22.83;63.29;100841.00;4114065;28;20042;-64
2023/07/09 02:47:46;;;;;;;15.00;6.13;;;;;;;22.86;63.09;100842.69;4113071;28;19930;-64
2023/07/09 02:49:50;;;;;;;17.48;5.63;;;;;;;22.98;62.77;100844.97;4096203;28;20035;-63
2023/07/09 02:51:53;;;;;;;15.90;5.88;;;;;;;22.99;62.86;100841.41;4097735;28;20066;-64
2023/07/09 02:53:57;;;;;;;14.68;5.95;;;;;;;23.02;62.87;100844.81;4097595;28;20035;-64
2023/07/09 02:56:00;;;;;;;12.80;6.25;;;;;;;23.07;62.58;100839.38;4113628;28;20326;-64
2023/07/09 02:58:04;;;;;;;11.67;6.13;;;;;;;23.01;62.63;100843.09;4112851;28;20047;-64
2023/07/09 03:00:09;;;;;;;13.07;6.13;;;;;;;23.02;62.65;100850.13;4097049;29;20086;-64
2023/07/09 03:02:17;;;;;;;13.38;6.00;;;;;;;23.09;62.41;100852.59;4112148;28;20046;-63
2023/07/09 03:04:20;;;;;;;12.75;6.30;;;;;;;23.10;62.29;100854.31;4112291;28;20134;-64
2023/07/09 03:06:24;;;;;;;10.10;4.80;;;;;;;22.93;62.53;100842.47;4113534;28;20528;-63
2023/07/09 03:08:27;;;;;;;;;;;;;;;22.87;63.10;100853.25;4112909;28;20081;-63
2023/07/09 03:10:30;;;;;;;10.85;5.90;;;;;;;22.83;63.15;100851.63;4112026;28;20021;-64
2023/07/09 03:12:33;;;;;;;14.18;5.32;;;;;;;22.85;63.12;100860.38;4096765;28;20134;-64
2023/07/09 03:14:37;;;;;;;11.68;5.38;;;;;;;22.81;63.04;100859.63;4095981;28;20484;-64
2023/07/09 03:16:41;;;;;;;13.40;5.47;;;;;;;22.75;63.25;100859.81;4095991;28;20118;-64
2023/07/09 03:18:44;;;;;;;;;;;;;;;22.66;63.38;100860.94;4112845;28;20050;-64
2023/07/09 03:20:47;;;;;;;15.07;6.22;;;;;;;22.74;63.54;100860.72;4112562;28;19922;-64
2023/07/09 03:22:50;;;;;;;12.13;5.53;;;;;;;22.70;63.30;100872.31;4111320;28;20487;-64
2023/07/09 03:24:53;;;;;;;14.63;5.53;;;;;;;22.70;63.60;100866.16;4109974;28;20039;-63
2023/07/09 03:26:57;;;;;;;12.10;5.85;;;;;;;22.70;63.17;100874.09;4113092;28;20254;-64
2023/07/09 03:29:00;;;;;;;16.95;6.10;;;;;;;22.74;63.28;100867.81;4112152;28;20045;-64
2023/07/09 03:31:03;;;;;;;17.45;5.78;;;;;;;22.72;63.51;100869.63;4078294;29;20522;-64
2023/07/09 03:33:08;;;;;;;14.07;6.45;;;;;;;22.76;63.10;100873.91;4111179;28;20066;-64
2023/07/09 03:35:11;;;;;;;;;;;;;;;22.63;63.86;100871.66;4095534;29;20047;-63
2023/07/09 03:37:15;;;;;;;20.67;6.60;;;;;;;22.72;63.39;100869.63;4112836;28;19922;-64
2023/07/09 03:39:17;;;;;;;14.57;6.33;;;;;;;22.76;63.38;100877.41;4097645;28;20039;-64
2023/07/09 03:41:20;;;;;;;15.27;6.50;;;;;;;22.75;63.32;100875.72;4111284;28;20094;-63
2023/07/09 03:43:23;;;;;;;11.40;5.05;;;;;;;22.72;63.56;100875.81;4096238;28;20493;-63
2023/07/09 03:45:26;;;;;;;13.98;6.20;;;;;;;22.70;63.52;100890.00;4094475;29;20039;-63
2023/07/09 03:47:29;;;;;;;11.88;5.72;;;;;;;22.78;63.37;100886.22;4097230;29;20658;-63
2023/07/09 03:49:34;;;;;;;9.82;6.05;;;;;;;22.81;63.15;100887.91;4096827;28;20039;-63
2023/07/09 03:51:36;;;;;;;;;;;;;;;22.71;63.98;100895.25;4096101;29;20130;-63
2023/07/09 03:53:38;;;;;;;9.43;5.78;;;;;;;22.76;63.33;100884.53;4111076;28;19926;-63
2023/07/09 03:55:41;;;;;;;11.60;5.55;;;;;;;22.74;63.48;100881.06;4096130;28;20137;-63
2023/07/09 03:57:44;;;;;;;15.88;6.30;;;;;;;22.72;63.77;100890.81;4097273;29;20122;-63
2023/07/09 03:59:47;;;;;;;12.60;6.38;;;;;;;22.67;63.85;100885.66;4097519;29;20085;-63
2023/07/09 04:01:50;;;;;;;15.45;6.00;;;;;;;22.66;64.16;100887.44;4112072;28;20053;-63
2023/07/09 04:03:53;;;;;;;13.43;6.00;;;;;;;22.64;64.17;100889.25;4096253;28;20051;-63
2023/07/09 04:06:00;;;;;;;12.18;5.82;;;;;;;22.72;63.88;100886.41;4096326;29;20098;-63
2023/07/09 04:08:05;;;;;;;18.35;6.65;;;;;;;22.81;63.81;100893.22;4097355;29;20053;-63
2023/07/09 04:10:08;;;;;;;12.20;5.70;;;;;;;22.81;63.55;100886.13;4112331;28;20038;-63
2023/07/09 04:12:11;;;;;;;14.27;6.03;;;;;;;22.85;63.48;100881.59;4111111;28;20130;-63
2023/07/09 04:14:14;;;;;;;10.13;5.10;;;;;;;22.91;63.22;100889.38;4096335;29;20473;-63
2023/07/09 04:16:17;;;;;;;13.13;5.57;;;;;;;22.89;63.33;100893.84;4111612;28;20563;-63
2023/07/09 04:18:19;;;;;;;10.15;5.60;;;;;;;22.88;63.37;100889.47;4096136;29;20142;-63
2023/07/09 04:20:23;;;;;;;8.80;5.07;;;;;;;22.83;63.73;100888.72;4110055;28;20515;-63
2023/07/09 04:22:27;;;;;;;11.52;4.85;;;;;;;22.86;63.47;100893.94;4096286;28;20039;-64
2023/07/09 04:24:33;;;;;;;10.68;5.85;;;;;;;22.95;63.02;100895.44;4095117;28;20039;-63
2023/07/09 04:26:38;;;;;;;13.07;5.50;;;;;;;22.96;63.08;100898.03;4096598;29;20039;-64
2023/07/09 04:28:41;;;;;;;12.95;5.35;;;;;;;22.95;63.09;100903.38;4095464;29;20461;-64
2023/07/09 04:30:48;;;;;;;12.07;6.05;;;;;;;23.00;63.09;100909.44;4094769;29;20130;-64
2023/07/09 04:32:52;;;;;;;12.43;6.00;;;;;;;22.98;63.14;100914.78;4109788;28;20089;-64
2023/07/09 04:34:54;;;;;;;11.65;6.70;;;;;;;22.91;63.57;100907.94;4096871;28;20043;-64
2023/07/09 04:36:57;;;;;;;13.75;6.35;;;;;;;22.83;64.21;100904.63;4096167;28;20492;-64
2023/07/09 04:39:01;;;;;;;13.38;6.30;;;;;;;22.77;64.59;100910.97;4111139;28;20045;-64
2023/07/09 04:41:04;;;;;;;20.23;6.95;;;;;;;22.81;64.54;100909.97;4096038;28;20509;-64
2023/07/09 04:43:07;;;;;;;23.73;6.65;;;;;;;22.87;64.37;100914.22;4097340;28;20548;-64
2023/07/09 04:45:11;;;;;;;17.73;6.75;;;;;;;22.87;64.35;100916.88;4096834;29;20133;-64
2023/07/09 04:47:14;;;;;;;15.85;5.70;;;;;;;22.95;64.21;100914.84;4094761;28;20035;-64
2023/07/09 04:49:17;;;;;;;17.23;6.90;;;;;;;23.01;64.32;100914.69;4094370;29;20043;-64
2023/07/09 04:51:20;;;;;;;17.05;6.75;;;;;;;23.07;63.98;100916.28;4112123;28;20034;-64
2023/07/09 04:53:24;;;;;;;17.33;6.65;;;;;;;23.09;63.94;100916.25;4111146;28;20053;-64
2023/07/09 04:55:28;;;;;;;17.25;6.03;;;;;;;23.12;63.52;100921.50;4096008;28;20039;-64
2023/07/09 04:57:31;;;;;;;;;;;;;;;23.06;63.39;100919.00;4111510;28;20040;-64
2023/07/09 04:59:33;;;;;;;14.10;6.65;;;;;;;23.09;62.85;100919.75;4092912;29;20021;-64
2023/07/09 05:01:35;;;;;;;11.45;5.63;;;;;;;23.15;62.54;100922.25;4096289;28;20066;-64
2023/07/09 05:03:39;;;;;;;14.80;5.90;;;;;;;23.26;62.20;100923.69;4095836;28;20071;-64
2023/07/09 05:05:43;;;;;;;13.68;5.10;;;;;;;23.35;62.38;100924.28;4110575;28;20134;-64
2023/07/09 05:07:47;;;;;;;;;;;;;;;23.37;62.09;100931.34;4097379;28;20077;-64
2023/07/09 05:09:50;;;;;;;16.30;5.82;;;;;;;23.49;61.92;100921.16;4096081;28;20014;-64
2023/07/09 05:11:54;;;;;;;11.77;6.28;;;;;;;23.50;62.11;100917.59;4095942;28;20041;-65
2023/07/09 05:13:57;;;;;;;16.38;5.78;;;;;;;23.51;62.04;100916.69;4093843;28;20067;-64
2023/07/09 05:16:00;;;;;;;15.82;6.45;;;;;;;23.64;61.54;100913.63;4095164;29;20043;-64
2023/07/09 05:18:03;;;;;;;12.43;5.43;;;;;;;23.67;61.39;100919.72;4095521;29;20043;-64
2023/07/09 05:20:07;;;;;;;8.55;5.15;;;;;;;23.74;61.14;100914.19;4110926;28;20039;-64
2023/07/09 05:22:10;;;;;;;15.15;5.95;;;;;;;23.79;60.85;100917.59;4095455;28;20453;-64
2023/07/09 05:24:12;;;;;;;14.93;5.95;;;;;;;23.88;60.90;100918.16;4096559;28;20053;-64
2023/07/09 05:26:15;;;;;;;11.30;5.90;;;;;;;23.88;60.67;100914.66;4111113;28;20043;-64
2023/07/09 05:28:19;;;;;;;12.07;5.80;;;;;;;23.96;60.61;100914.38;4100470;28;20378;-64
2023/07/09 05:30:22;;;;;;;10.32;5.28;;;;;;;23.99;60.34;100916.91;4094313;29;20061;-64
2023/07/09 05:32:28;;;;;;;13.18;5.97;;;;;;;23.98;60.28;100913.41;4096988;28;20082;-64
2023/07/09 05:34:31;;;;;;;11.80;6.53;;;;;;;24.02;59.58;100919.47;4094760;28;20578;-64
2023/07/09 05:36:34;;;;;;;10.43;5.75;;;;;;;24.05;59.62;100916.72;4096362;28;20049;-66
2023/07/09 05:38:37;;;;;;;8.45;4.72;;;;;;;24.13;59.82;100919.97;4097869;29;20051;-64
2023/07/09 05:40:40;;;;;;;8.52;4.60;;;;;;;24.13;59.94;100921.75;4114291;28;20125;-64
2023/07/09 05:42:43;;;;;;;10.27;4.85;;;;;;;24.20;59.69;100920.63;4099462;28;20067;-64
2023/07/09 05:44:47;;;;;;;13.80;5.32;;;;;;;24.25;59.95;100923.97;4097219;28;20126;-64
2023/07/09 05:46:50;;;;;;;11.02;5.75;;;;;;;24.33;59.79;100934.34;4099653;28;20130;-64
2023/07/09 05:48:53;;;;;;;8.98;5.22;;;;;;;24.32;59.79;100922.84;4114418;28;20047;-64
2023/07/09 05:50:55;;;;;;;10.38;5.15;;;;;;;24.40;59.67;100936.72;4098779;28;20126;-64
2023/07/09 05:52:58;;;;;;;12.30;5.85;;;;;;;24.48;59.47;100939.09;4099136;28;20439;-64
2023/07/09 05:55:01;;;;;;;7.78;5.00;;;;;;;24.54;59.09;100930.03;4098996;28;20070;-64
2023/07/09 05:57:05;;;;;;;12.95;5.70;;;;;;;24.61;58.73;100934.25;4098451;28;20043;-64
2023/07/09 05:59:08;;;;;;;9.93;4.90;;;;;;;24.65;58.44;100929.66;4099637;29;20103;-64
2023/07/09 06:01:12;;;;;;;9.10;5.35;;;;;;;24.73;57.96;100931.13;4113128;28;20035;-64
2023/07/09 06:03:15;;;;;;;9.75;6.28;;;;;;;24.74;57.62;100930.19;4099020;28;20082;-64
2023/07/09 06:05:18;;;;;;;10.32;5.53;;;;;;;24.81;57.03;100930.84;4099098;28;20039;-64
2023/07/09 06:07:22;;;;;;;8.30;4.82;;;;;;;24.90;56.89;100940.28;4113328;28;20078;-65
2023/07/09 06:09:26;;;;;;;;;;;;;;;24.88;56.83;100936.78;4097112;28;20130;-64
2023/07/09 06:11:29;;;;;;;12.73;6.00;;;;;;;24.92;56.84;100935.75;4096428;28;20536;-64
2023/07/09 06:13:33;;;;;;;13.80;6.40;;;;;;;25.01;56.49;100943.38;4095658;28;20416;-64
2023/07/09 06:15:35;;;;;;;11.77;5.53;;;;;;;25.09;56.24;100943.94;4097572;28;20039;-63
2023/07/09 06:17:39;;;;;;;10.43;5.55;;;;;;;25.17;55.80;100938.31;4112492;28;20302;-64
2023/07/09 06:19:42;;;;;;;;;;;;;;;25.13;55.64;100933.19;4098519;28;20497;-64
2023/07/09 06:21:44;;;;;;;12.43;6.03;;;;;;;25.17;55.48;100938.31;4096082;28;20016;-64
2023/07/09 06:23:47;;;;;;;13.07;5.85;;;;;;;25.23;55.31;100931.91;4097490;28;20042;-64
2023/07/09 06:25:51;;;;;;;14.27;5.35;;;;;;;25.25;55.19;100933.56;4099506;29;20039;-63
2023/07/09 06:27:53;;;;;;;12.30;5.40;;;;;;;25.33;55.06;100937.75;4095612;28;20050;-64
2023/07/09 06:29:56;;;;;;;12.30;5.35;;;;;;;25.44;55.11;100930.22;4097428;28;20050;-64
2023/07/09 06:31:59;;;;;;;13.15;5.93;;;;;;;25.49;54.64;100938.88;4112168;28;20039;-64
2023/07/09 06:34:04;;;;;;;12.88;5.88;;;;;;;25.59;54.67;100928.72;4112237;28;20061;-64
2023/07/09 06:36:07;;;;;;;15.80;10.27;;;;;;;25.68;54.76;100936.31;4098315;29;20047;-64
2023/07/09 06:38:10;;;;;;;12.70;7.15;;;;;;;25.76;54.52;100931.56;4098497;28;20763;-62
2023/07/09 06:40:13;;;;;;;9.98;6.05;;;;;;;25.81;54.23;100933.16;4097056;29;20036;-62
2023/07/09 06:42:16;;;;;;;13.13;6.57;;;;;;;25.86;53.48;100939.13;4099130;28;20409;-62
2023/07/09 06:44:45;;;;;;;9.48;5.43;;;;;;;25.95;53.03;100942.28;4095420;28;20049;-62
2023/07/09 06:46:48;;;;;;;7.68;5.20;;;;;;;25.95;51.85;100939.63;4108752;28;20129;-61
2023/07/09 06:48:51;;;;;;;7.88;5.05;;;;;;;26.01;52.05;100938.53;4094012;28;20098;-62
2023/07/09 06:50:57;;;;;;;11.32;5.63;;;;;;;26.17;50.89;100943.19;4094442;28;20537;-62
2023/07/09 06:53:00;;;;;;;10.68;5.80;;;;;;;26.25;50.69;100938.41;4093361;28;20058;-61
2023/07/09 06:55:03;;;;;;;10.43;5.82;;;;;;;26.20;51.11;100940.41;4096078;29;20042;-62
2023/07/09 06:57:06;;;;;;;9.88;5.03;;;;;;;26.16;51.25;100941.47;4095154;28;20174;-63
2023/07/09 06:59:09;;;;;;;11.77;5.53;;;;;;;26.28;51.45;100944.47;4096707;29;20063;-62
2023/07/09 07:01:13;;;;;;;12.25;5.25;;;;;;;26.26;51.85;100945.47;4092693;28;20477;-62
2023/07/09 07:03:16;;;;;;;11.17;5.70;;;;;;;26.35;50.89;100942.41;4110374;28;20047;-63
2023/07/09 07:05:19;;;;;;;8.80;4.70;;;;;;;26.39;49.99;100945.81;4092822;29;20040;-62
2023/07/09 07:07:24;;;;;;;10.13;5.53;;;;;;;26.49;49.45;100949.78;4097372;28;21523;-63
2023/07/09 07:09:26;;;;;;;;;;;;;;;26.47;49.68;100947.19;4093714;29;20055;-62
2023/07/09 07:11:30;;;;;;;14.68;4.68;;;;;;;26.53;50.03;100932.69;4097360;28;19952;-62
2023/07/09 07:13:35;;;;;;;10.68;4.82;;;;;;;26.61;49.89;100935.03;4093059;28;20458;-62
2023/07/09 07:15:39;;;;;;;9.55;5.07;;;;;;;26.69;50.19;100937.38;4096941;29;20035;-62
2023/07/09 07:17:42;;;;;;;8.60;5.18;;;;;;;26.77;49.46;100930.75;4098052;29;20176;-61
2023/07/09 07:19:45;;;;;;;10.43;4.88;;;;;;;26.72;49.13;100932.78;4096460;28;20039;-63
2023/07/09 07:21:47;;;;;;;9.13;5.38;;;;;;;26.80;48.58;100930.63;4097722;29;20040;-63
2023/07/09 07:23:52;;;;;;;13.00;5.55;;;;;;;26.92;48.29;100926.50;4151620;23;20403;-61
2023/07/09 07:25:56;;;;;;;11.93;4.72;;;;;;;26.89;48.47;100921.31;4157860;28;20043;-61
2023/07/09 07:27:59;;;;;;;9.32;5.30;;;;;;;26.98;48.77;100925.34;4158194;28;20057;-59
2023/07/09 07:30:03;;;;;;;8.65;4.63;;;;;;;27.05;48.29;100918.78;4160348;28;20042;-62
2023/07/09 07:32:07;;;;;;;9.85;4.93;;;;;;;27.12;48.03;100922.91;4159914;28;20072;-59
2023/07/09 07:34:11;;;;;;;11.15;5.38;;;;;;;27.27;46.90;100915.09;4147313;28;20458;-59
2023/07/09 07:36:14;;;;;;;7.05;4.45;;;;;;;27.23;47.61;100918.84;4135266;28;20088;-58
2023/07/09 07:38:20;;;;;;;8.57;4.57;;;;;;;27.32;47.52;100910.38;4133159;28;20134;-59
2023/07/09 07:40:24;;;;;;;8.60;4.35;;;;;;;27.36;46.54;100914.66;4147583;28;20466;-59
2023/07/09 07:42:29;;;;;;;8.63;4.40;;;;;;;27.44;46.80;100920.50;4139502;28;20068;-59
2023/07/09 07:44:32;;;;;;;10.35;4.13;;;;;;;27.57;46.39;100920.78;4135684;28;20046;-59
2023/07/09 07:46:35;;;;;;;10.05;4.68;;;;;;;27.64;46.33;100919.53;4140092;28;20046;-59
2023/07/09 07:48:38;;;;;;;10.45;4.78;;;;;;;27.73;46.79;100920.88;4145357;28;20500;-59
2023/07/09 07:50:41;;;;;;;9.90;4.65;;;;;;;27.84;46.63;100918.50;4146672;28;20496;-59
2023/07/09 07:52:44;;;;;;;7.57;4.30;;;;;;;27.94;45.96;100918.06;4138837;28;20042;-59
2023/07/09 07:54:46;;;;;;;8.40;4.40;;;;;;;27.95;45.85;100917.97;4142234;28;20037;-59
2023/07/09 07:56:52;;;;;;;6.60;4.15;;;;;;;28.02;46.12;100919.41;4144637;28;20037;-59
2023/07/09 07:59:21;;;;;;;16.75;5.60;;;;;;;28.21;45.41;100919.31;4131267;28;20056;-60
2023/07/09 08:01:24;;;;;;;8.88;5.00;;;;;;;28.14;46.06;100915.25;4141281;28;20065;-60
2023/07/09 08:03:27;;;;;;;10.45;4.90;;;;;;;28.31;44.07;100913.47;4144617;28;20045;-59
2023/07/09 08:05:30;;;;;;;7.20;4.90;;;;;;;28.19;45.26;100923.88;4144717;28;20049;-60
2023/07/09 08:07:33;;;;;;;7.88;4.55;;;;;;;28.24;45.36;100914.75;4145498;28;20384;-60
2023/07/09 08:09:36;;;;;;;7.05;4.78;;;;;;;28.27;44.44;100919.94;4144212;28;20045;-60
2023/07/09 08:11:39;;;;;;;7.53;4.90;;;;;;;28.41;44.37;100916.53;4141863;28;20519;-60
2023/07/09 08:13:43;;;;;;;12.10;4.80;;;;;;;28.54;44.10;100912.25;4141241;28;20052;-60
2023/07/09 08:15:47;;;;;;;8.32;4.70;;;;;;;28.58;43.90;100907.59;4127648;28;20125;-60
2023/07/09 08:17:51;;;;;;;7.88;4.20;;;;;;;28.58;44.34;100905.78;4133099;28;20053;-60
2023/07/09 08:19:55;;;;;;;8.38;4.65;;;;;;;28.70;43.18;100904.28;4139971;28;20042;-60
2023/07/09 08:21:58;;;;;;;8.50;4.78;;;;;;;28.77;43.78;100908.34;4140133;28;20510;-61
2023/07/09 08:24:01;;;;;;;6.88;4.30;;;;;;;28.81;43.61;100904.56;4144208;28;20038;-60
2023/07/09 08:26:04;;;;;;;7.72;4.97;;;;;;;28.90;43.47;100904.03;4155895;28;20112;-60
2023/07/09 08:28:08;;;;;;;9.02;4.53;;;;;;;29.00;43.52;100898.16;4152992;28;20129;-60
2023/07/09 08:30:13;;;;;;;7.70;4.70;;;;;;;29.10;43.01;100904.72;4147331;28;20068;-60
2023/07/09 08:32:16;;;;;;;7.53;4.35;;;;;;;29.18;43.47;100904.31;4138675;28;20066;-60
2023/07/09 08:34:18;;;;;;;7.78;4.25;;;;;;;29.29;42.65;100899.22;4159980;28;20430;-60
2023/07/09 08:36:21;;;;;;;8.10;5.05;;;;;;;29.34;42.24;100901.66;4139112;28;20049;-60
2023/07/09 08:38:29;;;;;;;10.27;4.63;;;;;;;29.47;41.70;100909.81;4134758;28;20052;-60
2023/07/09 08:40:32;;;;;;;6.95;4.18;;;;;;;29.44;42.24;100902.84;4137517;28;20427;-60
2023/07/09 08:42:43;;;;;;;8.20;3.97;;;;;;;29.47;41.83;100907.13;4132886;28;20092;-60
2023/07/09 08:45:16;;;;;;;10.50;5.35;;;;;;;29.37;41.80;100904.16;4135446;28;20049;-60
2023/07/09 08:47:30;;;;;;;6.95;4.60;;;;;;;29.50;42.24;100907.84;4135985;28;20046;-61
2023/07/09 08:49:41;;;;;;;9.20;4.70;;;;;;;29.60;41.70;100903.66;4136627;28;20080;-65
2023/07/09 08:51:45;;;;;;;6.90;3.88;;;;;;;29.73;41.67;100903.81;4131096;28;20070;-65
2023/07/09 08:53:53;;;;;;;10.32;4.50;;;;;;;29.84;41.52;100900.50;4145865;28;20422;-65
2023/07/09 08:55:57;;;;;;;10.57;4.93;;;;;;;29.95;41.63;100897.19;4139166;28;20137;-64
2023/07/09 08:58:04;;;;;;;7.93;4.50;;;;;;;30.04;41.73;100902.00;4135233;28;20540;-64
2023/07/09 09:00:17;;;;;;;8.90;4.00;;;;;;;30.14;41.69;100904.09;4138425;28;20065;-64
2023/07/09 09:02:30;;;;;;;10.05;4.85;;;;;;;30.19;41.06;100902.88;4148358;28;20049;-64
2023/07/09 09:04:38;;;;;;;6.88;4.40;;;;;;;30.29;39.90;100900.50;4151052;28;20516;-65
2023/07/09 09:06:48;;;;;;;8.70;4.45;;;;;;;30.15;40.28;100901.34;4149421;28;20079;-65
2023/07/09 09:09:00;;;;;;;5.90;3.95;;;;;;;30.24;40.76;100898.09;4146490;28;20050;-65
2023/07/09 09:11:13;;;;;;;11.27;5.07;;;;;;;30.34;40.64;100898.38;4149206;28;20040;-65
2023/07/09 09:13:19;;;;;;;12.05;4.50;;;;;;;30.35;40.56;100891.22;4147881;28;20052;-65
2023/07/09 09:15:26;;;;;;;6.78;4.13;;;;;;;30.44;39.82;100896.88;4145363;28;20137;-66
2023/07/09 09:17:29;;;;;;;6.45;4.13;;;;;;;30.46;39.84;100886.03;4151353;28;20381;-65
2023/07/09 09:19:40;;;;;;;9.80;5.47;;;;;;;30.74;38.90;100895.06;4150129;28;20049;-64
2023/07/09 09:21:44;;;;;;;6.65;4.05;;;;;;;30.76;39.05;100893.13;4152680;28;20484;-64
2023/07/09 09:23:52;;;;;;;6.78;3.92;;;;;;;30.63;39.39;100895.72;4149859;28;20077;-64
2023/07/09 09:25:57;;;;;;;12.15;4.55;;;;;;;30.66;39.33;100886.63;4147061;28;20050;-65
2023/07/09 09:28:15;;;;;;;7.85;4.00;;;;;;;30.85;39.41;100895.22;4148451;28;20507;-65
2023/07/09 09:30:21;;;;;;;7.88;4.75;;;;;;;30.99;39.56;100891.66;4142801;28;20038;-64
2023/07/09 09:32:28;;;;;;;7.45;4.22;;;;;;;31.18;37.88;100883.28;4135918;28;20125;-64
2023/07/09 09:34:31;;;;;;;8.18;4.28;;;;;;;31.20;38.57;100886.72;4139629;28;20033;-64
2023/07/09 09:36:38;;;;;;;10.23;5.05;;;;;;;31.16;37.96;100887.88;4142533;28;20048;-64